Time;durP1;ratioP1;P1;durP2;ratioP2;P2;SDS_P1;SDS_P2;PMS_P1;PMS_P2;Temp;Humidity;BMP_temperature;BMP_pressure;BME280_temperature;BME280_humidity;BME280_pressure;Samples;Min_cycle;Max_cycle;Signal;HPM_P1;HPM_P2
2021/07/04 00:00:50;;;;;;;2.60;1.70;;;;;;;20.28;64.90;98530.09;5089605;28;41770;-84
2021/07/04 00:03:18;;;;;;;2.13;1.30;;;;;;;20.35;64.55;98541.94;5072980;28;42364;-84
2021/07/04 00:05:47;;;;;;;1.50;1.37;;;;;;;20.35;64.79;98541.94;5091516;28;40049;-84
2021/07/04 00:08:18;;;;;;;1.17;1.10;;;;;;;20.26;64.63;98520.56;5072901;28;41190;-83
2021/07/04 00:10:49;;;;;;;1.40;1.30;;;;;;;20.33;64.38;98519.72;5090139;28;41725;-83
2021/07/04 00:13:18;;;;;;;1.50;1.40;;;;;;;20.37;64.18;98529.16;5089934;28;42586;-84
2021/07/04 00:15:48;;;;;;;2.00;1.80;;;;;;;20.39;64.11;98529.00;5090407;28;40870;-83
2021/07/04 00:18:19;;;;;;;1.50;1.40;;;;;;;20.38;64.33;98525.47;5072764;28;41099;-83
2021/07/04 00:20:47;;;;;;;2.00;1.63;;;;;;;20.26;64.28;98507.94;5073807;28;41711;-84
2021/07/04 00:23:17;;;;;;;1.40;1.27;;;;;;;20.34;65.01;98525.94;5072178;28;41186;-83
2021/07/04 00:25:46;;;;;;;1.77;1.40;;;;;;;20.33;64.31;98526.94;5089882;28;40002;-83
2021/07/04 00:28:24;;;;;;;2.03;1.60;;;;;;;20.28;65.08;98524.72;5073468;28;41044;-83
2021/07/04 00:30:54;;;;;;;1.30;1.20;;;;;;;20.25;64.87;98519.72;5090563;28;43830;-83
2021/07/04 00:33:30;;;;;;;1.40;1.30;;;;;;;20.27;64.58;98522.22;5105437;27;42151;-83
2021/07/04 00:35:59;;;;;;;1.30;1.20;;;;;;;20.21;64.49;98512.97;5090449;28;39195;-84
2021/07/04 00:38:26;;;;;;;2.60;1.97;;;;;;;20.24;64.25;98520.72;5089701;28;41897;-83
2021/07/04 00:40:55;;;;;;;2.07;1.70;;;;;;;20.21;64.67;98523.72;5073484;28;43154;-83
2021/07/04 00:43:23;;;;;;;1.77;1.43;;;;;;;20.21;64.46;98521.03;5089158;28;41545;-84
2021/07/04 00:45:51;;;;;;;1.73;1.33;;;;;;;20.11;64.64;98501.53;5073188;28;38810;-84
2021/07/04 00:48:21;;;;;;;1.27;1.10;;;;;;;20.18;64.61;98515.97;5072063;28;40830;-83
2021/07/04 00:50:50;;;;;;;1.27;1.17;;;;;;;20.19;64.92;98514.97;5072901;28;42769;-83
2021/07/04 00:53:21;;;;;;;1.60;1.50;;;;;;;20.17;65.59;98505.38;5072121;28;42533;-83
2021/07/04 00:55:51;;;;;;;2.80;1.97;;;;;;;20.18;65.41;98507.91;5072998;28;40128;-83
2021/07/04 00:58:21;;;;;;;1.60;1.40;;;;;;;20.16;65.19;98501.84;5088834;28;41200;-83
2021/07/04 01:00:54;;;;;;;1.37;1.27;;;;;;;20.10;64.94;98491.78;5106343;27;42007;-83
2021/07/04 01:03:23;;;;;;;1.50;1.10;;;;;;;20.15;64.86;98502.88;5089288;28;41284;-83
2021/07/04 01:05:56;;;;;;;1.00;0.90;;;;;;;20.13;64.40;98495.97;5073730;28;40039;-84
2021/07/04 01:08:24;;;;;;;1.40;1.20;;;;;;;20.12;64.87;98499.69;5105082;27;41075;-84
2021/07/04 01:10:52;;;;;;;1.57;1.30;;;;;;;20.20;64.87;98511.28;5072999;28;41885;-84
2021/07/04 01:13:24;;;;;;;1.60;1.03;;;;;;;20.08;65.00;98500.00;5089240;28;42515;-84
2021/07/04 01:16:02;;;;;;;2.03;1.57;;;;;;;20.07;65.76;98500.16;5072500;28;39224;-83
2021/07/04 01:18:31;;;;;;;2.37;1.80;;;;;;;20.08;66.11;98491.09;5072594;28;40459;-84
2021/07/04 01:21:05;;;;;;;2.00;1.50;;;;;;;20.09;65.71;98499.00;5072641;28;43116;-84
2021/07/04 01:23:39;;;;;;;2.00;1.80;;;;;;;20.12;65.74;98484.38;5089409;28;42656;-84
2021/07/04 01:26:08;;;;;;;2.10;1.67;;;;;;;20.24;65.47;98504.56;5072839;28;39163;-83
2021/07/04 01:28:36;;;;;;;0.90;0.90;;;;;;;20.07;65.61;98473.28;5088261;28;42170;-83
2021/07/04 01:31:06;;;;;;;1.53;1.40;;;;;;;20.24;65.84;98495.66;5072976;28;42300;-84
2021/07/04 01:33:38;;;;;;;1.70;1.40;;;;;;;20.19;65.84;98492.63;5090003;28;41614;-84
2021/07/04 01:36:13;;;;;;;1.97;1.50;;;;;;;20.17;65.70;98483.88;5073007;28;39081;-84
2021/07/04 01:38:44;;;;;;;1.10;1.10;;;;;;;20.13;65.55;98483.38;5072497;28;41991;-84
2021/07/04 01:41:14;;;;;;;1.87;1.77;;;;;;;20.15;65.74;98485.91;5071656;28;41723;-84
2021/07/04 01:43:42;;;;;;;1.47;1.37;;;;;;;20.17;65.86;98491.94;5072628;28;41493;-84
2021/07/04 01:46:10;;;;;;;1.80;1.57;;;;;;;20.21;65.55;98496.84;5088830;28;40059;-84
2021/07/04 01:48:39;;;;;;;1.70;1.60;;;;;;;20.15;65.46;98484.06;5088076;28;42774;-83
2021/07/04 01:51:11;;;;;;;0.83;0.83;;;;;;;20.10;65.12;98486.41;5089185;28;44429;-84
2021/07/04 01:53:39;;;;;;;1.17;1.07;;;;;;;20.18;65.28;98491.78;5088756;28;42479;-84
2021/07/04 01:56:17;;;;;;;1.50;1.37;;;;;;;20.12;65.08;98495.13;5071986;28;38813;-84
2021/07/04 01:58:55;;;;;;;2.63;1.50;;;;;;;20.14;65.63;98490.44;5071029;28;41970;-84
2021/07/04 02:01:38;;;;;;;1.30;1.20;;;;;;;20.05;65.18;98480.66;5088687;28;42863;-84
2021/07/04 02:04:07;;;;;;;1.27;1.17;;;;;;;20.06;65.14;98485.03;5071278;28;42085;-84
2021/07/04 02:06:38;;;;;;;1.43;1.10;;;;;;;20.08;65.47;98489.25;5072607;28;39021;-83
2021/07/04 02:09:08;;;;;;;1.00;0.90;;;;;;;20.06;65.75;98493.09;5070922;28;41997;-83
2021/07/04 02:11:38;;;;;;;1.20;1.10;;;;;;;19.97;65.67;98494.09;5072927;28;42247;-84
2021/07/04 02:14:10;;;;;;;2.77;1.83;;;;;;;19.90;65.65;98482.31;5071389;28;41770;-84
2021/07/04 02:17:10;;;;;;;1.30;0.97;;;;;;;19.88;65.52;98495.06;5043284;28;38979;-84
2021/07/04 02:19:50;;;;;;;1.30;1.20;;;;;;;19.82;65.63;98504.63;5074032;28;40910;-83
2021/07/04 02:22:33;;;;;;;1.10;1.00;;;;;;;19.82;65.66;98501.09;5092075;28;43561;-83
2021/07/04 02:25:08;;;;;;;1.50;1.40;;;;;;;19.73;66.65;98495.69;5091976;28;41136;-84
2021/07/04 02:27:40;;;;;;;1.27;1.17;;;;;;;19.68;66.88;98489.13;5075965;28;38941;-84
2021/07/04 02:30:31;;;;;;;1.00;0.90;;;;;;;19.67;67.30;98493.66;5090588;28;42240;-83
2021/07/04 02:33:02;;;;;;;1.43;1.33;;;;;;;19.64;67.42;98499.38;5092636;28;42699;-84
2021/07/04 02:35:31;;;;;;;1.27;1.17;;;;;;;19.59;67.06;98501.69;5108600;28;42612;-84
2021/07/04 02:38:00;;;;;;;1.20;1.10;;;;;;;19.46;67.00;98487.81;5108510;28;40344;-83
2021/07/04 02:40:34;;;;;;;2.20;1.43;;;;;;;19.42;67.33;98489.13;5103584;28;41978;-82
2021/07/04 02:43:08;;;;;;;1.13;1.00;;;;;;;19.40;67.59;98496.53;5092856;28;43127;-84
2021/07/04 02:45:38;;;;;;;1.10;1.00;;;;;;;19.42;67.50;98516.00;5071548;28;42073;-83
2021/07/04 02:48:13;;;;;;;1.10;1.00;;;;;;;19.36;67.42;98516.66;5074487;28;40590;-83
2021/07/04 02:50:46;;;;;;;1.27;1.20;;;;;;;19.31;67.33;98513.59;5075645;28;42123;-84
2021/07/04 02:53:14;;;;;;;0.77;0.77;;;;;;;19.28;67.60;98513.94;5075611;28;43707;-83
2021/07/04 02:55:45;;;;;;;1.53;0.90;;;;;;;19.25;68.33;98509.72;5058219;28;41153;-83
2021/07/04 02:58:16;;;;;;;1.57;1.47;;;;;;;19.23;68.45;98521.59;5074498;28;40067;-84
2021/07/04 03:00:45;;;;;;;0.90;0.90;;;;;;;19.23;68.38;98510.88;5057206;28;40758;-84
2021/07/04 03:03:15;;;;;;;2.10;1.20;;;;;;;19.16;67.97;98510.66;5070394;28;43084;-84
2021/07/04 03:05:45;;;;;;;1.30;1.20;;;;;;;19.16;67.85;98507.13;5054850;28;41572;-84
2021/07/04 03:08:13;;;;;;;0.73;0.67;;;;;;;19.14;67.55;98496.56;5070775;28;40911;-84
2021/07/04 03:10:41;;;;;;;0.93;0.93;;;;;;;19.14;67.57;98495.72;5057132;28;41946;-83
2021/07/04 03:13:10;;;;;;;1.20;1.00;;;;;;;19.14;67.55;98501.09;5070491;28;42878;-84
2021/07/04 03:15:40;;;;;;;1.17;0.90;;;;;;;19.20;67.39;98521.91;5054709;28;40950;-84
2021/07/04 03:18:09;;;;;;;1.13;1.03;;;;;;;19.20;67.35;98521.91;5054411;28;40031;-84
2021/07/04 03:20:40;;;;;;;1.47;1.10;;;;;;;19.09;67.46;98498.03;5071649;28;42874;-83
2021/07/04 03:23:11;;;;;;;1.00;0.87;;;;;;;19.10;67.81;98502.38;5053821;28;41831;-84
2021/07/04 03:25:40;;;;;;;1.00;0.90;;;;;;;19.09;67.68;98500.69;5054862;28;41185;-84
2021/07/04 03:28:10;;;;;;;1.33;1.10;;;;;;;19.06;67.92;98503.69;5061387;28;40114;-85
2021/07/04 03:30:40;;;;;;;1.00;0.93;;;;;;;19.14;68.03;98517.19;5089447;28;42000;-84
2021/07/04 03:33:09;;;;;;;1.30;0.97;;;;;;;19.02;68.54;98504.03;5074420;28;43719;-84
2021/07/04 03:35:38;;;;;;;0.90;0.90;;;;;;;19.12;69.21;98519.19;5074245;28;41963;-84
2021/07/04 03:38:09;;;;;;;1.27;1.00;;;;;;;19.05;69.33;98507.38;5090894;28;41769;-84
2021/07/04 03:40:40;;;;;;;1.30;1.20;;;;;;;19.15;69.99;98517.03;5073655;28;40614;-84
2021/07/04 03:43:19;;;;;;;1.60;1.50;;;;;;;19.18;70.22;98518.53;5073593;28;41788;-84
2021/07/04 03:45:49;;;;;;;1.80;1.10;;;;;;;19.20;69.97;98519.22;5091183;28;42427;-84
2021/07/04 03:48:16;;;;;;;1.40;1.30;;;;;;;19.15;69.65;98502.78;5073735;28;39995;-84
2021/07/04 03:50:50;;;;;;;1.83;1.10;;;;;;;19.17;70.24;98504.28;5073871;28;41090;-84
2021/07/04 03:53:19;;;;;;;1.37;1.20;;;;;;;19.28;69.76;98508.56;5073626;28;42240;-84
2021/07/04 03:55:50;;;;;;;1.23;1.13;;;;;;;19.25;70.16;98506.19;5073319;28;41529;-83
2021/07/04 03:58:20;;;;;;;1.50;1.37;;;;;;;19.34;69.73;98518.63;5074005;28;39475;-84
2021/07/04 04:00:50;;;;;;;1.97;1.00;;;;;;;19.29;69.82;98502.16;5073312;28;42142;-84
2021/07/04 04:03:28;;;;;;;1.40;1.20;;;;;;;19.41;69.94;98508.94;5072938;28;42811;-84
2021/07/04 04:06:02;;;;;;;1.40;1.30;;;;;;;19.51;69.47;98519.63;5074288;28;41386;-84
2021/07/04 04:08:39;;;;;;;1.63;1.10;;;;;;;19.50;69.39;98505.34;5073381;28;38981;-84
2021/07/04 04:11:07;;;;;;;1.10;1.00;;;;;;;19.62;69.00;98517.47;5090589;28;41831;-84
2021/07/04 04:13:41;;;;;;;1.03;1.03;;;;;;;19.69;69.44;98515.81;5074423;28;42912;-84
2021/07/04 04:16:17;;;;;;;0.93;0.93;;;;;;;19.67;69.23;98490.97;5072504;28;41562;-84
2021/07/04 04:18:45;;;;;;;1.00;1.00;;;;;;;19.70;68.49;98487.94;5090638;28;40201;-84
2021/07/04 04:21:16;;;;;;;1.47;1.37;;;;;;;19.88;68.48;98503.97;5073723;28;40887;-84
2021/07/04 04:23:47;;;;;;;1.13;1.00;;;;;;;20.07;68.30;98521.66;5089809;28;42820;-84
2021/07/04 04:26:21;;;;;;;1.23;1.13;;;;;;;20.07;68.03;98511.75;5073298;28;41394;-84
2021/07/04 04:28:50;;;;;;;1.97;1.23;;;;;;;20.21;68.12;98518.34;5070158;28;40242;-84
2021/07/04 04:31:20;;;;;;;1.03;1.00;;;;;;;20.25;67.97;98510.78;5053047;28;40706;-84
2021/07/04 04:33:48;;;;;;;1.17;1.00;;;;;;;20.38;67.78;98520.09;5069438;28;43004;-84
2021/07/04 04:36:16;;;;;;;1.70;1.50;;;;;;;20.39;67.47;98508.34;5053635;28;41285;-84
2021/07/04 04:38:44;;;;;;;0.80;0.80;;;;;;;20.49;67.18;98520.78;5053259;28;38931;-85
2021/07/04 04:41:11;;;;;;;1.47;1.20;;;;;;;20.60;67.26;98517.75;5053708;28;41089;-85
2021/07/04 04:43:40;;;;;;;0.83;0.70;;;;;;;20.77;67.23;98536.41;5086157;28;42701;-85
2021/07/04 04:46:08;;;;;;;1.67;1.57;;;;;;;20.75;67.00;98514.22;5069683;28;42437;-84
2021/07/04 04:48:37;;;;;;;1.10;1.00;;;;;;;20.94;66.80;98521.09;5069198;28;40143;-84
2021/07/04 04:51:04;;;;;;;1.50;1.40;;;;;;;20.94;66.45;98507.66;5069580;28;42160;-84
2021/07/04 04:53:32;;;;;;;1.00;1.00;;;;;;;21.03;66.05;98509.31;5052068;28;43086;-84
2021/07/04 04:56:01;;;;;;;1.23;1.10;;;;;;;21.19;65.95;98521.09;5053715;28;42130;-84
2021/07/04 04:58:28;;;;;;;1.30;1.10;;;;;;;21.26;65.70;98524.81;5069062;28;38981;-84
2021/07/04 05:00:56;;;;;;;1.20;1.10;;;;;;;21.39;65.34;98520.53;5070108;28;42579;-84
2021/07/04 05:03:23;;;;;;;1.43;1.17;;;;;;;21.49;65.07;98504.22;5052582;28;42146;-84
2021/07/04 05:05:52;;;;;;;1.07;1.00;;;;;;;21.73;65.13;98520.28;5053211;28;40998;-84
2021/07/04 05:08:20;;;;;;;1.57;1.20;;;;;;;21.84;64.29;98514.50;5052220;28;39794;-84
2021/07/04 05:10:47;;;;;;;1.60;1.03;;;;;;;22.02;63.97;98518.81;5053524;28;40634;-84
2021/07/04 05:13:15;;;;;;;1.57;1.40;;;;;;;22.12;63.59;98511.38;5068524;28;43855;-84
2021/07/04 05:15:43;;;;;;;2.00;1.30;;;;;;;22.17;63.30;98501.72;5052747;28;41201;-84
2021/07/04 05:18:10;;;;;;;1.73;1.33;;;;;;;22.35;63.18;98506.84;5052075;28;40428;-84
2021/07/04 05:20:39;;;;;;;1.37;1.17;;;;;;;22.58;62.56;98523.03;5069127;28;40955;-84
2021/07/04 05:23:08;;;;;;;1.30;1.10;;;;;;;22.74;61.83;98513.97;5102838;28;43132;-85
2021/07/04 05:25:36;;;;;;;1.10;1.00;;;;;;;22.83;61.66;98499.41;5069505;28;41279;-85
2021/07/04 05:28:04;;;;;;;1.20;1.10;;;;;;;23.02;60.81;98511.53;5058669;28;40203;-84
2021/07/04 05:30:32;;;;;;;1.30;1.20;;;;;;;23.18;60.74;98511.41;5072236;28;41009;-84
2021/07/04 05:32:59;;;;;;;1.23;0.97;;;;;;;23.26;60.46;98501.34;5072144;28;41969;-85
2021/07/04 05:35:28;;;;;;;1.30;1.00;;;;;;;23.54;59.51;98517.78;5088724;28;42558;-84
2021/07/04 05:37:55;;;;;;;1.10;1.00;;;;;;;23.67;59.17;98511.72;5071926;28;39206;-84
2021/07/04 05:40:24;;;;;;;0.90;0.87;;;;;;;23.70;59.44;98492.44;5075200;28;40728;-85
2021/07/04 05:42:53;;;;;;;0.87;0.87;;;;;;;23.86;58.61;98503.03;5071423;28;41952;-84
2021/07/04 05:45:24;;;;;;;2.20;1.47;;;;;;;24.05;58.07;98500.75;5071606;28;41216;-84
2021/07/04 05:47:53;;;;;;;0.93;0.93;;;;;;;24.04;57.47;98485.56;5071990;28;39000;-85
2021/07/04 05:50:21;;;;;;;1.20;1.10;;;;;;;24.17;57.79;98501.94;5072138;28;40932;-84
2021/07/04 05:52:49;;;;;;;1.37;1.27;;;;;;;24.18;57.84;98490.09;5071048;28;42149;-85
2021/07/04 05:55:16;;;;;;;1.20;1.10;;;;;;;24.16;56.72;98484.88;5071490;28;41959;-85
2021/07/04 05:57:46;;;;;;;1.13;1.03;;;;;;;24.26;56.78;98495.41;5071181;28;39083;-85
2021/07/04 06:00:15;;;;;;;0.90;0.83;;;;;;;24.22;57.14;98464.34;5088016;28;42177;-85
2021/07/04 06:02:42;;;;;;;1.33;1.00;;;;;;;24.42;56.67;98495.19;5088237;28;42632;-85
2021/07/04 06:05:13;;;;;;;0.70;0.70;;;;;;;24.41;56.57;98479.97;5070656;28;42173;-86
2021/07/04 06:07:41;;;;;;;1.40;1.30;;;;;;;24.46;56.45;98479.41;5072184;28;40039;-85
2021/07/04 06:10:09;;;;;;;1.20;1.10;;;;;;;24.61;56.17;98483.69;5071898;28;41813;-85
2021/07/04 06:12:36;;;;;;;1.60;1.50;;;;;;;24.77;55.91;98487.16;5087868;28;42967;-85
2021/07/04 06:15:06;;;;;;;1.50;1.17;;;;;;;24.85;55.74;98477.03;5070853;28;41429;-85
2021/07/04 06:17:35;;;;;;;1.40;1.30;;;;;;;24.95;55.25;98479.44;5071551;28;38944;-85
2021/07/04 06:20:04;;;;;;;1.10;1.00;;;;;;;25.12;55.32;98471.84;5071598;28;40731;-86
2021/07/04 06:22:32;;;;;;;2.43;1.20;;;;;;;25.28;54.38;98477.81;5087772;28;43209;-84
2021/07/04 06:25:00;;;;;;;1.07;0.97;;;;;;;25.33;54.68;98480.78;5071450;28;41545;-85
2021/07/04 06:27:28;;;;;;;1.13;1.03;;;;;;;25.36;54.03;98485.78;5085302;28;40331;-85
2021/07/04 06:29:55;;;;;;;1.63;1.13;;;;;;;25.31;54.14;98474.69;5087517;28;41736;-85
2021/07/04 06:32:24;;;;;;;1.03;1.00;;;;;;;25.48;54.62;98482.50;5087743;28;43787;-85
2021/07/04 06:34:52;;;;;;;1.20;1.00;;;;;;;25.55;54.10;98472.53;5071681;28;42140;-85
2021/07/04 06:37:21;;;;;;;0.70;0.70;;;;;;;25.67;53.87;98473.69;5087517;28;40934;-84
2021/07/04 06:39:48;;;;;;;1.30;1.20;;;;;;;25.79;53.41;98477.50;5071029;28;41377;-85
2021/07/04 06:42:16;;;;;;;1.20;1.13;;;;;;;25.97;53.34;98488.63;5088660;28;43051;-84
2021/07/04 06:44:44;;;;;;;1.50;1.00;;;;;;;26.05;52.50;98491.16;5069946;28;42556;-85
2021/07/04 06:47:11;;;;;;;1.43;1.27;;;;;;;26.18;52.38;98495.81;5070837;28;39062;-85
2021/07/04 06:49:40;;;;;;;1.17;1.07;;;;;;;26.27;52.22;98478.28;5070464;28;42125;-84
2021/07/04 06:52:08;;;;;;;1.50;1.40;;;;;;;26.44;52.37;98481.50;5087642;28;42805;-84
2021/07/04 06:54:36;;;;;;;1.33;1.10;;;;;;;26.54;51.92;98489.22;5071046;28;43186;-85
2021/07/04 06:59:45;;;;;;;1.93;1.30;;;;;;;26.33;50.93;98465.81;5068827;28;41138;-85
2021/07/04 07:02:13;;;;;;;1.30;1.20;;;;;;;26.61;50.79;98490.91;5067148;28;42929;-85
2021/07/04 07:04:42;;;;;;;1.30;1.20;;;;;;;26.65;50.65;98470.44;5066726;28;41184;-86
2021/07/04 07:07:09;;;;;;;1.57;1.47;;;;;;;26.94;50.20;98495.56;5089477;28;40567;-84
2021/07/04 07:09:37;;;;;;;1.23;1.13;;;;;;;26.92;49.88;98475.88;5074314;28;40896;-85
2021/07/04 07:12:05;;;;;;;1.20;1.20;;;;;;;27.03;50.70;98472.56;5070202;28;43146;-85
2021/07/04 07:14:33;;;;;;;1.90;1.10;;;;;;;27.16;49.48;98495.16;5069333;28;41527;-85
2021/07/04 07:17:00;;;;;;;1.13;1.03;;;;;;;27.16;50.17;98472.56;5073194;28;39192;-85
2021/07/04 07:19:28;;;;;;;2.67;1.50;;;;;;;27.27;49.48;98481.94;5072976;28;40676;-85
2021/07/04 07:21:57;;;;;;;1.93;1.20;;;;;;;27.29;49.52;98471.69;5072819;28;42189;-84
2021/07/04 07:24:26;;;;;;;1.73;1.53;;;;;;;27.38;49.32;98481.28;5070862;28;41119;-85
2021/07/04 07:26:53;;;;;;;1.50;1.20;;;;;;;27.48;49.06;98479.81;5070872;28;40095;-85
2021/07/04 07:29:21;;;;;;;2.10;1.10;;;;;;;27.75;49.02;98475.16;5070759;28;42103;-84
2021/07/04 07:31:49;;;;;;;1.20;1.10;;;;;;;27.98;48.42;98455.59;5086121;28;42982;-85
2021/07/04 07:34:17;;;;;;;1.47;1.37;;;;;;;28.22;48.00;98479.38;5070385;28;42297;-84
2021/07/04 07:36:45;;;;;;;1.20;1.10;;;;;;;28.32;47.08;98458.97;5088597;28;40233;-81
2021/07/04 07:39:14;;;;;;;1.93;1.33;;;;;;;28.54;47.09;98468.50;5069792;28;40898;-82
2021/07/04 07:41:44;;;;;;;1.27;1.17;;;;;;;28.60;47.34;98448.53;5086640;28;42757;-83
2021/07/04 07:44:13;;;;;;;1.43;1.33;;;;;;;28.79;47.67;98458.50;5069959;28;41332;-83
2021/07/04 07:46:48;;;;;;;1.30;1.20;;;;;;;28.67;45.98;98460.22;5069089;28;39964;-83
2021/07/04 07:49:16;;;;;;;1.43;1.10;;;;;;;28.86;47.12;98463.88;5087782;28;41009;-83
2021/07/04 07:51:50;;;;;;;1.30;1.20;;;;;;;29.18;46.04;98467.34;5070329;28;41591;-83
2021/07/04 07:54:23;;;;;;;1.50;1.00;;;;;;;29.73;45.12;98470.16;5073035;28;41532;-83
2021/07/04 07:56:50;;;;;;;2.27;2.07;;;;;;;30.18;43.63;98482.44;5090682;28;39915;-83
2021/07/04 07:59:20;;;;;;;1.43;1.33;;;;;;;31.37;40.95;98495.13;5090487;28;41982;-82
2021/07/04 08:01:47;;;;;;;1.27;1.17;;;;;;;32.88;38.70;98506.78;5090445;28;42935;-84
2021/07/04 08:04:15;;;;;;;1.57;1.40;;;;;;;33.55;37.20;98517.75;5072564;28;41562;-84
2021/07/04 08:06:43;;;;;;;1.50;1.40;;;;;;;33.40;37.03;98501.03;5089466;28;39816;-83
2021/07/04 08:09:11;;;;;;;1.03;1.00;;;;;;;33.34;37.84;98499.31;5071263;28;41753;-83
2021/07/04 08:11:49;;;;;;;1.27;1.17;;;;;;;34.00;37.25;98495.59;5088310;28;41888;-82
2021/07/04 08:14:19;;;;;;;1.97;1.87;;;;;;;34.87;34.83;98514.75;5088071;28;42258;-83
2021/07/04 08:16:51;;;;;;;1.43;1.33;;;;;;;35.85;33.65;98514.44;5072247;28;39195;-83
2021/07/04 08:19:19;;;;;;;1.20;1.10;;;;;;;36.01;33.53;98513.41;5088183;28;40604;-83
2021/07/04 08:21:46;;;;;;;1.50;1.40;;;;;;;35.74;33.33;98518.19;5072276;28;42644;-82
2021/07/04 08:24:14;;;;;;;1.33;1.23;;;;;;;34.90;34.51;98492.22;5088604;28;43160;-82
2021/07/04 08:26:42;;;;;;;1.30;1.30;;;;;;;34.09;35.45;98485.84;5090268;28;40927;-83
2021/07/04 08:29:11;;;;;;;1.50;1.40;;;;;;;33.30;36.74;98484.44;5089694;28;41938;-84
2021/07/04 08:31:38;;;;;;;1.30;1.20;;;;;;;32.53;37.56;98460.31;5089458;28;42973;-83
2021/07/04 08:34:06;;;;;;;1.90;1.70;;;;;;;32.25;38.71;98447.47;5088646;28;43048;-83
2021/07/04 08:36:33;;;;;;;1.20;1.10;;;;;;;32.34;38.74;98456.13;5090210;28;41049;-83
2021/07/04 08:39:01;;;;;;;1.80;1.53;;;;;;;32.34;38.29;98461.63;5088778;28;40515;-83
2021/07/04 08:41:29;;;;;;;1.60;1.50;;;;;;;32.42;38.38;98436.53;5072007;28;42899;-82
2021/07/04 08:43:57;;;;;;;1.90;1.80;;;;;;;32.44;38.32;98439.88;5068317;28;40940;-82
2021/07/04 08:46:26;;;;;;;1.37;1.27;;;;;;;32.87;38.62;98433.81;5067870;28;39314;-82
2021/07/04 08:48:53;;;;;;;1.43;1.33;;;;;;;33.74;37.25;98455.97;5071064;28;41999;-83
2021/07/04 08:51:21;;;;;;;1.30;1.20;;;;;;;34.22;36.49;98457.13;5089519;28;43654;-81
2021/07/04 08:53:48;;;;;;;1.43;1.33;;;;;;;34.80;35.57;98459.13;5082096;28;41523;-82
2021/07/04 08:56:16;;;;;;;1.30;1.30;;;;;;;35.20;34.69;98453.13;5072455;28;40231;-83
2021/07/04 08:58:43;;;;;;;1.27;1.07;;;;;;;35.45;34.92;98457.16;5087240;28;42770;-83
2021/07/04 09:01:14;;;;;;;1.40;1.30;;;;;;;35.82;34.55;98448.84;5071541;28;41674;-85
2021/07/04 09:03:46;;;;;;;1.70;1.60;;;;;;;36.21;33.18;98457.53;5122774;27;42742;-83
2021/07/04 09:06:15;;;;;;;1.93;1.83;;;;;;;36.36;33.39;98421.72;5088583;28;40573;-83
2021/07/04 09:08:43;;;;;;;1.90;1.80;;;;;;;36.95;32.47;98462.66;5089557;28;41898;-83
2021/07/04 09:11:12;;;;;;;1.60;1.50;;;;;;;37.87;31.04;98469.72;5071608;28;42910;-84
2021/07/04 09:13:41;;;;;;;1.50;1.40;;;;;;;38.77;28.67;98483.38;5088459;28;41092;-83
2021/07/04 09:16:10;;;;;;;2.30;2.10;;;;;;;38.87;28.07;98479.69;5071649;28;39048;-83
2021/07/04 09:18:38;;;;;;;1.73;1.63;;;;;;;39.47;28.14;98476.44;5088884;28;41902;-83
2021/07/04 09:21:24;;;;;;;1.50;1.40;;;;;;;40.45;27.80;98475.00;5071752;28;42781;-83
2021/07/04 09:23:52;;;;;;;1.90;1.60;;;;;;;40.40;27.36;98460.38;5061943;28;42452;-84
2021/07/04 09:26:42;;;;;;;1.53;1.43;;;;;;;40.15;27.75;98469.84;5089110;28;41186;-81
2021/07/04 09:29:12;;;;;;;1.43;1.33;;;;;;;39.91;28.26;98469.88;5088134;28;41895;-83
2021/07/04 09:31:41;;;;;;;1.70;1.60;;;;;;;39.59;28.46;98453.03;5090932;28;42297;-83
2021/07/04 09:34:10;;;;;;;1.40;1.30;;;;;;;39.55;28.76;98454.75;5090392;28;43338;-85
2021/07/04 09:36:41;;;;;;;1.53;1.43;;;;;;;38.78;28.54;98460.94;5072455;28;39753;-84
2021/07/04 09:39:17;;;;;;;1.37;1.27;;;;;;;38.09;28.98;98439.75;5087842;28;41892;-84
2021/07/04 09:42:05;;;;;;;1.40;1.30;;;;;;;37.21;30.71;98436.72;5071091;28;41781;-83
2021/07/04 09:44:33;;;;;;;1.57;1.47;;;;;;;36.22;31.18;98431.66;5087755;28;43074;-83
2021/07/04 09:47:18;;;;;;;1.50;1.40;;;;;;;35.78;32.02;98436.69;5087939;28;40419;-82
2021/07/04 09:49:49;;;;;;;1.50;1.40;;;;;;;36.09;31.20;98426.63;5068748;28;20230;-81
2021/07/04 09:52:20;;;;;;;1.70;1.60;;;;;;;35.77;31.80;98424.00;5066913;28;41454;-82
2021/07/04 09:54:59;;;;;;;2.07;1.87;;;;;;;35.49;32.07;98423.28;5070947;28;41455;-83
2021/07/04 09:57:28;;;;;;;1.37;1.27;;;;;;;35.82;32.03;98424.88;5071227;28;39064;-81
2021/07/04 10:00:16;;;;;;;1.47;1.37;;;;;;;37.84;30.14;98436.25;5088990;28;41818;-82
2021/07/04 10:03:06;;;;;;;1.50;1.40;;;;;;;39.15;26.99;98434.63;5087317;28;43589;-82
2021/07/04 10:05:34;;;;;;;1.20;1.10;;;;;;;38.06;28.72;98412.66;5086990;28;42627;-82
2021/07/04 10:08:17;;;;;;;1.47;1.37;;;;;;;37.47;29.86;98414.53;5071154;28;39088;-81
2021/07/04 10:10:45;;;;;;;1.33;1.23;;;;;;;37.14;30.60;98389.19;5086826;28;41859;-82
2021/07/04 10:13:13;;;;;;;1.47;1.37;;;;;;;37.36;31.12;98398.00;5086831;28;43078;-82
2021/07/04 10:15:41;;;;;;;1.60;1.50;;;;;;;37.89;29.58;98387.31;5086909;28;41310;-81
2021/07/04 10:18:10;;;;;;;1.50;1.40;;;;;;;38.06;28.95;98387.78;5087712;28;41620;-81
2021/07/04 10:20:38;;;;;;;1.97;1.80;;;;;;;38.13;27.48;98406.00;5087881;28;41697;-83
2021/07/04 10:23:09;;;;;;;1.40;1.30;;;;;;;38.21;27.85;98411.75;5051214;28;41725;-82
2021/07/04 10:25:37;;;;;;;2.40;1.80;;;;;;;37.74;28.14;98393.75;5067225;28;42331;-82
2021/07/04 10:28:05;;;;;;;1.40;1.30;;;;;;;37.10;28.57;98388.06;5082417;28;41018;-82
2021/07/04 10:30:33;;;;;;;1.37;1.27;;;;;;;36.69;29.95;98393.66;5066960;28;40646;-82
2021/07/04 10:33:14;;;;;;;1.60;1.50;;;;;;;36.44;30.64;98374.31;5068462;28;43645;-83
2021/07/04 10:36:06;;;;;;;1.40;1.30;;;;;;;36.03;29.31;98380.81;5064804;28;42141;-82
2021/07/04 10:38:51;;;;;;;1.43;1.33;;;;;;;36.06;29.88;98372.84;5087223;28;39166;-82
2021/07/04 10:41:21;;;;;;;1.40;1.30;;;;;;;36.16;30.20;98369.28;5089764;28;42734;-83
2021/07/04 10:44:04;;;;;;;1.90;1.80;;;;;;;36.14;30.53;98352.16;5091512;28;43145;-83
2021/07/04 10:47:15;;;;;;;1.47;1.37;;;;;;;36.20;29.57;98370.38;5090786;28;42126;-82
2021/07/04 10:49:49;;;;;;;1.47;1.27;;;;;;;36.00;30.16;98366.47;5078544;28;40269;-82
2021/07/04 10:52:22;;;;;;;1.40;1.30;;;;;;;35.88;31.09;98341.09;5074930;28;40635;-82
2021/07/04 10:54:54;;;;;;;1.23;1.10;;;;;;;35.84;29.51;98361.22;5090792;28;43104;-82
2021/07/04 10:57:33;;;;;;;1.40;1.30;;;;;;;35.80;30.45;98341.63;5074220;28;41509;-83
2021/07/04 11:00:25;;;;;;;1.07;1.00;;;;;;;36.01;30.82;98336.97;5073771;28;38902;-81
2021/07/04 11:02:56;;;;;;;1.20;1.10;;;;;;;36.27;30.76;98344.22;5073364;28;40859;-84
2021/07/04 11:05:47;;;;;;;1.43;1.33;;;;;;;36.42;30.47;98331.53;5089230;28;43079;-83
2021/07/04 11:08:16;;;;;;;1.33;1.23;;;;;;;36.24;30.05;98325.47;5071551;28;41268;-81
2021/07/04 11:11:06;;;;;;;1.10;1.10;;;;;;;36.18;30.44;98322.94;5089639;28;40792;-82
2021/07/04 11:13:48;;;;;;;1.53;1.43;;;;;;;35.95;30.13;98316.03;5090138;28;41502;-82
2021/07/04 11:16:26;;;;;;;1.67;1.40;;;;;;;35.74;29.33;98320.66;5071681;28;42013;-82
2021/07/04 11:18:57;;;;;;;1.37;1.27;;;;;;;35.74;30.21;98314.28;5073058;28;41994;-82
2021/07/04 11:21:52;;;;;;;1.60;1.50;;;;;;;35.88;30.90;98302.50;5090169;28;39848;-82
2021/07/04 11:24:23;;;;;;;1.50;1.40;;;;;;;36.14;30.20;98299.78;5073746;28;41978;-86
2021/07/04 11:27:25;;;;;;;1.53;1.33;;;;;;;36.33;30.07;98307.28;5074840;28;42000;-82
2021/07/04 11:30:38;;;;;;;1.40;1.30;;;;;;;36.41;30.96;98297.63;5075148;28;40859;-82
2021/07/04 11:33:26;;;;;;;1.33;1.23;;;;;;;36.48;29.61;98298.16;5016241;28;40182;-82
2021/07/04 11:35:56;;;;;;;1.20;1.13;;;;;;;36.57;30.68;98274.44;5080344;28;42235;-83
2021/07/04 11:38:27;;;;;;;1.67;1.40;;;;;;;36.50;28.96;98271.13;5090253;28;43904;-82
2021/07/04 11:40:56;;;;;;;1.70;1.60;;;;;;;36.93;29.11;98299.22;5074028;28;41887;-84
2021/07/04 11:43:27;;;;;;;1.30;1.20;;;;;;;36.84;30.09;98284.34;5073581;28;38911;-84
2021/07/04 11:45:57;;;;;;;1.47;1.37;;;;;;;36.42;29.57;98255.13;5088581;28;42733;-81
2021/07/04 11:48:44;;;;;;;1.20;1.10;;;;;;;36.41;29.29;98292.09;5089358;28;43469;-82
2021/07/04 11:51:12;;;;;;;1.37;1.33;;;;;;;36.00;31.12;98270.00;5090088;28;42072;-82
2021/07/04 11:53:47;;;;;;;1.23;1.13;;;;;;;35.82;29.42;98289.00;5072426;28;39932;-82
2021/07/04 11:56:15;;;;;;;1.30;1.20;;;;;;;36.46;29.74;98278.31;5072567;28;41696;-82